createdAt,value
2023-12-18T00:01:15.392Z,10.55
2023-12-18T00:03:43.093Z,9.30
2023-12-18T00:06:10.800Z,7.85
2023-12-18T00:08:38.431Z,9.15
2023-12-18T00:11:06.032Z,8.50
2023-12-18T00:13:33.735Z,6.95
2023-12-18T00:16:01.496Z,9.93
2023-12-18T00:18:29.266Z,8.98
2023-12-18T00:20:57.569Z,9.30
2023-12-18T00:23:25.222Z,9.10
2023-12-18T00:25:52.830Z,7.20
2023-12-18T00:28:20.466Z,8.88
2023-12-18T00:30:48.220Z,6.72
2023-12-18T00:33:16.035Z,8.18
2023-12-18T00:35:43.724Z,8.30
2023-12-18T00:38:11.337Z,10.60
2023-12-18T00:40:38.983Z,8.55
2023-12-18T00:43:06.664Z,8.70
2023-12-18T00:45:34.348Z,8.35
2023-12-18T00:48:02.129Z,7.72
2023-12-18T00:50:29.945Z,7.82
2023-12-18T00:52:57.654Z,7.78
2023-12-18T00:55:25.432Z,8.15
2023-12-18T00:57:54.546Z,7.70
2023-12-18T01:00:22.740Z,7.85
2023-12-18T01:02:50.401Z,7.80
2023-12-18T01:05:18.095Z,7.88
2023-12-18T01:07:45.738Z,8.25
2023-12-18T01:10:13.413Z,7.50
2023-12-18T01:12:41.121Z,7.70
2023-12-18T01:15:09.057Z,6.85
2023-12-18T01:17:37.128Z,7.65
2023-12-18T01:20:06.115Z,7.13
2023-12-18T01:22:33.747Z,8.80
2023-12-18T01:25:01.702Z,9.10
2023-12-18T01:27:29.409Z,6.85
2023-12-18T01:29:57.076Z,7.43
2023-12-18T01:32:24.751Z,7.57
2023-12-18T01:34:52.434Z,7.40
2023-12-18T01:37:20.164Z,7.00
2023-12-18T01:39:47.914Z,5.22
2023-12-18T01:42:15.677Z,7.00
2023-12-18T01:44:43.338Z,5.93
2023-12-18T01:47:10.975Z,7.20
2023-12-18T01:49:38.750Z,6.75
2023-12-18T01:52:06.765Z,6.43
2023-12-18T01:54:34.509Z,5.90
2023-12-18T01:57:02.224Z,6.13
2023-12-18T01:59:29.874Z,5.70
2023-12-18T02:01:57.499Z,5.88
2023-12-18T02:04:25.162Z,7.00
2023-12-18T02:06:52.827Z,5.95
2023-12-18T02:09:20.465Z,5.38
2023-12-18T02:11:48.136Z,5.07
2023-12-18T02:14:15.815Z,4.63
2023-12-18T02:16:43.440Z,4.40
2023-12-18T02:19:27.002Z,4.57
2023-12-18T02:21:58.032Z,4.65
2023-12-18T02:24:25.976Z,3.88
2023-12-18T02:26:54.498Z,4.15
2023-12-18T02:29:22.276Z,4.13
2023-12-18T02:31:49.884Z,3.97
2023-12-18T02:34:17.626Z,4.40
2023-12-18T02:36:45.484Z,3.95
2023-12-18T02:39:13.179Z,4.60
2023-12-18T02:41:40.941Z,4.22
2023-12-18T02:44:08.552Z,4.30
2023-12-18T02:46:36.157Z,4.75
2023-12-18T02:49:04.230Z,4.10
2023-12-18T02:53:59.463Z,4.30
2023-12-18T02:56:27.171Z,4.43
2023-12-18T02:58:56.348Z,3.85
2023-12-18T03:01:24.043Z,4.63
2023-12-18T03:03:51.778Z,4.70
2023-12-18T03:06:19.430Z,4.32
2023-12-18T03:08:47.202Z,3.85
2023-12-18T03:11:14.828Z,4.10
2023-12-18T03:13:42.429Z,3.92
2023-12-18T03:16:10.044Z,4.22
2023-12-18T03:18:37.877Z,5.00
2023-12-18T03:21:05.618Z,3.83
2023-12-18T03:23:33.299Z,4.47
2023-12-18T03:26:00.994Z,4.15
2023-12-18T03:28:28.591Z,2.72
2023-12-18T03:30:56.290Z,3.70
2023-12-18T03:33:24.107Z,3.50
2023-12-18T03:35:51.778Z,3.95
2023-12-18T03:38:19.386Z,3.90
2023-12-18T03:40:46.982Z,3.70
2023-12-18T03:43:14.628Z,3.97
2023-12-18T03:45:42.314Z,2.85
2023-12-18T03:48:10.276Z,3.10
2023-12-18T03:50:38.051Z,3.45
2023-12-18T03:53:05.741Z,3.80
2023-12-18T03:55:33.361Z,4.20
2023-12-18T03:58:00.955Z,3.35
2023-12-18T04:00:28.722Z,3.15
2023-12-18T04:02:56.386Z,3.30
2023-12-18T04:05:25.421Z,3.17
2023-12-18T04:07:53.121Z,2.53
2023-12-18T04:10:20.741Z,2.70
2023-12-18T04:12:48.430Z,1.80
2023-12-18T04:15:16.178Z,3.30
2023-12-18T04:17:44.130Z,3.70
2023-12-18T04:22:39.533Z,3.40
2023-12-18T04:25:07.586Z,3.28
2023-12-18T04:27:35.255Z,3.05
2023-12-18T04:30:04.091Z,2.22
2023-12-18T04:32:31.893Z,2.03
2023-12-18T04:34:59.709Z,2.22
2023-12-18T04:37:27.353Z,2.50
2023-12-18T04:39:55.851Z,3.03
2023-12-18T04:42:23.911Z,3.10
2023-12-18T04:44:51.589Z,2.30
2023-12-18T04:47:19.226Z,2.80
2023-12-18T04:49:46.964Z,2.67
2023-12-18T04:52:14.774Z,2.50
2023-12-18T04:54:42.487Z,2.67
2023-12-18T04:57:10.129Z,2.30
2023-12-18T04:59:37.833Z,2.40
2023-12-18T05:02:05.565Z,2.47
2023-12-18T05:04:33.404Z,2.45
2023-12-18T05:07:01.143Z,2.55
2023-12-18T05:09:28.822Z,2.35
2023-12-18T05:11:56.488Z,2.83
2023-12-18T05:14:24.104Z,2.13
2023-12-18T05:16:51.758Z,2.85
2023-12-18T05:19:19.459Z,2.83
2023-12-18T05:21:47.213Z,2.95
2023-12-18T05:24:14.951Z,2.83
2023-12-18T05:26:42.629Z,3.35
2023-12-18T05:29:10.256Z,2.92
2023-12-18T05:31:37.993Z,2.90
2023-12-18T05:34:05.828Z,2.45
2023-12-18T05:36:33.642Z,3.42
2023-12-18T05:39:01.314Z,2.90
2023-12-18T05:41:28.941Z,2.90
2023-12-18T05:43:56.564Z,2.92
2023-12-18T05:46:24.172Z,2.90
2023-12-18T05:48:51.856Z,3.30
2023-12-18T05:51:22.953Z,2.70
2023-12-18T05:53:50.706Z,2.60
2023-12-18T05:56:18.479Z,2.45
2023-12-18T05:58:46.384Z,2.80
2023-12-18T06:01:14.066Z,2.08
2023-12-18T06:03:41.873Z,3.15
2023-12-18T06:06:09.746Z,2.75
2023-12-18T06:08:37.419Z,2.95
2023-12-18T06:11:05.413Z,3.05
2023-12-18T06:13:33.129Z,2.25
2023-12-18T06:16:01.906Z,3.10
2023-12-18T06:18:29.700Z,2.90
2023-12-18T06:20:57.451Z,2.50
2023-12-18T06:23:25.121Z,2.17
2023-12-18T06:25:52.839Z,2.58
2023-12-18T06:28:20.541Z,2.25
2023-12-18T06:30:48.188Z,2.50
2023-12-18T06:33:16.640Z,3.20
2023-12-18T06:35:44.478Z,3.15
2023-12-18T06:38:12.154Z,3.65
2023-12-18T06:40:39.749Z,2.92
2023-12-18T06:43:07.456Z,2.85
2023-12-18T06:45:35.309Z,2.08
2023-12-18T06:48:04.082Z,2.08
2023-12-18T06:50:32.729Z,2.92
2023-12-18T06:53:01.784Z,2.50
2023-12-18T06:55:29.683Z,3.40
2023-12-18T06:57:57.399Z,2.17
2023-12-18T07:00:39.269Z,2.33
2023-12-18T07:03:09.135Z,2.40
2023-12-18T07:05:37.154Z,2.13
2023-12-18T07:08:04.991Z,2.30
2023-12-18T07:10:32.753Z,2.13
2023-12-18T07:13:00.389Z,1.90
2023-12-18T07:15:28.083Z,1.92
2023-12-18T07:17:55.814Z,2.20
2023-12-18T07:20:23.509Z,2.20
2023-12-18T07:22:51.111Z,2.08
2023-12-18T07:25:18.744Z,1.70
2023-12-18T07:27:46.408Z,1.75
2023-12-18T07:30:14.644Z,1.63
2023-12-18T07:35:10.224Z,1.88
2023-12-18T07:37:37.843Z,2.28
2023-12-18T07:40:06.376Z,1.63
2023-12-18T07:42:34.004Z,2.33
2023-12-18T07:45:01.644Z,2.20
2023-12-18T07:47:29.462Z,1.90
2023-12-18T07:49:57.110Z,2.17
2023-12-18T07:52:24.821Z,2.15
2023-12-18T07:54:52.488Z,2.22
2023-12-18T07:57:20.098Z,1.95
2023-12-18T07:59:47.726Z,1.60
2023-12-18T08:02:15.322Z,1.80
2023-12-18T08:04:42.997Z,2.03
2023-12-18T08:07:10.783Z,2.42
2023-12-18T08:09:38.394Z,3.92
2023-12-18T08:12:06.425Z,2.22
2023-12-18T08:14:34.126Z,1.80
2023-12-18T08:17:01.851Z,2.20
2023-12-18T08:19:29.505Z,2.35
2023-12-18T08:21:57.192Z,2.28
2023-12-18T08:24:24.804Z,2.38
2023-12-18T08:26:52.444Z,2.25
2023-12-18T08:29:20.090Z,2.35
2023-12-18T08:31:47.720Z,2.25
2023-12-18T08:34:15.396Z,3.25
2023-12-18T08:36:43.128Z,2.42
2023-12-18T08:39:11.475Z,1.77
2023-12-18T08:41:39.677Z,2.60
2023-12-18T08:44:08.607Z,1.60
2023-12-18T08:46:36.261Z,1.48
2023-12-18T08:49:04.053Z,1.48
2023-12-18T08:51:31.857Z,2.30
2023-12-18T08:53:59.553Z,1.55
2023-12-18T08:56:27.231Z,1.80
2023-12-18T08:58:56.928Z,2.03
2023-12-18T09:01:24.659Z,2.25
2023-12-18T09:03:53.095Z,2.60
2023-12-18T09:06:22.077Z,2.47
2023-12-18T09:08:49.884Z,2.70
2023-12-18T09:11:17.512Z,2.85
2023-12-18T09:13:45.137Z,2.60
2023-12-18T09:16:13.577Z,3.30
2023-12-18T09:18:41.269Z,3.85
2023-12-18T09:21:08.997Z,3.38
2023-12-18T09:23:36.639Z,3.05
2023-12-18T09:26:04.358Z,3.22
2023-12-18T09:28:32.007Z,3.10
2023-12-18T09:30:59.667Z,3.00
2023-12-18T09:33:27.562Z,3.42
2023-12-18T09:35:55.286Z,2.65
2023-12-18T09:38:23.796Z,3.30
2023-12-18T09:40:51.429Z,3.13
2023-12-18T09:43:19.412Z,3.38
2023-12-18T09:45:50.260Z,3.05
2023-12-18T09:48:19.560Z,3.30
2023-12-18T09:50:47.691Z,2.85
2023-12-18T09:53:17.707Z,2.97
2023-12-18T09:55:45.378Z,3.38
2023-12-18T09:58:14.340Z,2.92
2023-12-18T10:00:42.048Z,3.13
2023-12-18T10:03:09.995Z,3.33
2023-12-18T10:05:37.767Z,2.35
2023-12-18T10:08:05.771Z,2.20
2023-12-18T10:13:04.291Z,2.83
2023-12-18T10:15:33.792Z,3.28
2023-12-18T10:18:02.637Z,3.00
2023-12-18T10:20:31.241Z,2.65
2023-12-18T10:23:01.377Z,3.17
2023-12-18T10:25:29.086Z,3.17
2023-12-18T10:27:57.046Z,3.10
2023-12-18T10:30:29.900Z,4.07
2023-12-18T10:32:58.261Z,8.02
2023-12-18T10:35:26.065Z,2.60
2023-12-18T10:40:23.490Z,2.83
2023-12-18T10:43:04.084Z,4.78
2023-12-18T10:45:31.822Z,4.07
2023-12-18T10:48:00.111Z,3.10
2023-12-18T10:50:28.550Z,4.15
2023-12-18T10:52:56.164Z,2.40
2023-12-18T10:55:23.816Z,3.70
2023-12-18T10:57:51.561Z,1.88
2023-12-18T11:00:19.335Z,2.88
2023-12-18T11:02:47.072Z,3.15
2023-12-18T11:05:15.221Z,2.53
2023-12-18T11:07:43.205Z,3.15
2023-12-18T11:10:13.066Z,3.90
2023-12-18T11:12:41.247Z,2.08
2023-12-18T11:15:31.456Z,2.85
2023-12-18T11:18:05.451Z,2.22
2023-12-18T11:20:36.967Z,5.38
2023-12-18T11:23:06.153Z,1.55
2023-12-18T11:25:34.271Z,5.10
2023-12-18T11:28:02.736Z,3.30
2023-12-18T11:30:31.007Z,1.73
2023-12-18T11:32:59.038Z,2.22
2023-12-18T11:35:30.615Z,1.98
2023-12-18T11:38:09.670Z,2.13
2023-12-18T11:40:38.123Z,2.33
2023-12-18T11:43:05.879Z,3.10
2023-12-18T11:45:33.657Z,1.98
2023-12-18T11:48:03.124Z,1.80
2023-12-18T11:50:35.692Z,1.48
2023-12-18T11:53:04.027Z,1.00
2023-12-18T11:55:48.283Z,1.73
2023-12-18T11:58:17.024Z,1.40
2023-12-18T12:00:44.781Z,1.50
2023-12-18T12:03:12.511Z,2.30
2023-12-18T12:05:40.174Z,4.40
2023-12-18T12:08:07.933Z,1.98
2023-12-18T12:10:45.232Z,2.80
2023-12-18T12:13:22.308Z,1.85
2023-12-18T12:15:53.057Z,1.50
2023-12-18T12:18:20.945Z,3.30
2023-12-18T12:20:48.724Z,4.72
2023-12-18T12:23:16.333Z,1.88
2023-12-18T12:25:43.985Z,2.58
2023-12-18T12:28:11.592Z,3.15
2023-12-18T12:30:39.343Z,1.90
2023-12-18T12:33:07.173Z,4.18
2023-12-18T12:35:34.938Z,3.95
2023-12-18T12:38:02.582Z,1.10
2023-12-18T12:40:40.081Z,3.72
2023-12-18T12:43:07.904Z,2.25
2023-12-18T12:45:36.863Z,1.88
2023-12-18T12:48:08.339Z,1.88
2023-12-18T12:50:39.501Z,1.90
2023-12-18T12:53:14.380Z,1.52
2023-12-18T12:55:42.322Z,1.60
2023-12-18T13:00:37.866Z,3.58
2023-12-18T13:05:33.409Z,2.10
2023-12-18T13:10:31.504Z,1.33
2023-12-18T13:12:59.194Z,1.42
2023-12-18T13:15:27.070Z,3.47
2023-12-18T13:17:57.503Z,6.97
2023-12-18T13:20:29.054Z,6.40
2023-12-18T13:22:57.877Z,3.55
2023-12-18T13:25:25.653Z,5.18
2023-12-18T13:27:53.573Z,3.45
2023-12-18T13:32:48.979Z,1.83
2023-12-18T13:35:16.727Z,1.77
2023-12-18T13:37:44.587Z,1.30
2023-12-18T13:40:12.462Z,5.88
2023-12-18T13:42:40.236Z,2.38
2023-12-18T13:45:08.710Z,3.30
2023-12-18T13:47:36.345Z,1.33
2023-12-18T13:50:04.127Z,1.88
2023-12-18T13:52:31.817Z,4.38
2023-12-18T13:54:59.594Z,1.40
2023-12-18T13:57:31.234Z,1.85
2023-12-18T14:00:06.525Z,3.10
2023-12-18T14:02:34.459Z,2.97
2023-12-18T14:05:04.085Z,3.40
2023-12-18T14:07:32.114Z,3.97
2023-12-18T14:09:59.702Z,6.85
2023-12-18T14:12:27.366Z,3.90
2023-12-18T14:14:55.092Z,3.40
2023-12-18T14:17:22.706Z,5.35
2023-12-18T14:19:50.364Z,4.32
2023-12-18T14:22:18.054Z,5.68
2023-12-18T14:24:45.703Z,6.10
2023-12-18T14:27:13.417Z,5.53
2023-12-18T14:29:41.065Z,3.70
2023-12-18T14:32:08.665Z,5.00
2023-12-18T14:34:36.470Z,4.43
2023-12-18T14:37:09.036Z,5.68
2023-12-18T14:39:36.787Z,4.78
2023-12-18T14:42:04.527Z,5.88
2023-12-18T14:44:35.436Z,4.90
2023-12-18T14:47:03.127Z,3.45
2023-12-18T14:49:30.865Z,4.18
2023-12-18T14:51:58.594Z,4.78
2023-12-18T14:54:26.291Z,4.40
2023-12-18T14:56:53.977Z,4.28
2023-12-18T14:59:22.236Z,5.45
2023-12-18T15:04:22.968Z,4.32
2023-12-18T15:06:56.743Z,5.80
2023-12-18T15:09:24.536Z,7.20
2023-12-18T15:11:52.144Z,4.78
2023-12-18T15:14:20.068Z,5.88
2023-12-18T15:16:48.568Z,5.32
2023-12-18T15:19:16.374Z,5.07
2023-12-18T15:21:44.141Z,4.55
2023-12-18T15:24:13.789Z,5.85
2023-12-18T15:26:41.550Z,5.22
2023-12-18T15:29:09.304Z,5.28
2023-12-18T15:31:37.118Z,6.53
2023-12-18T15:34:06.885Z,4.60
2023-12-18T15:36:35.578Z,5.15
2023-12-18T15:39:03.426Z,4.68
2023-12-18T15:41:31.128Z,4.13
2023-12-18T15:43:58.823Z,4.82
2023-12-18T15:46:26.443Z,4.45
2023-12-18T15:48:54.684Z,5.05
2023-12-18T15:51:22.694Z,5.28
2023-12-18T15:53:50.347Z,5.22
2023-12-18T15:56:18.432Z,6.13
2023-12-18T15:58:46.157Z,5.85
2023-12-18T16:01:14.201Z,5.25
2023-12-18T16:03:42.337Z,5.43
2023-12-18T16:06:10.165Z,5.60
2023-12-18T16:08:37.788Z,6.25
2023-12-18T16:11:05.495Z,6.78
2023-12-18T16:13:33.159Z,6.20
2023-12-18T16:16:00.774Z,6.35
2023-12-18T16:18:28.477Z,7.15
2023-12-18T16:20:56.482Z,6.13
2023-12-18T16:23:24.183Z,6.07
2023-12-18T16:25:54.283Z,6.30
2023-12-18T16:28:21.915Z,4.35
2023-12-18T16:30:56.878Z,4.32
2023-12-18T16:33:26.606Z,3.83
2023-12-18T16:35:54.954Z,4.88
2023-12-18T16:38:22.646Z,4.10
2023-12-18T16:40:53.884Z,3.70
2023-12-18T16:43:21.731Z,4.10
2023-12-18T16:45:49.460Z,4.55
2023-12-18T16:48:17.301Z,4.10
2023-12-18T16:50:45.075Z,5.53
2023-12-18T16:53:12.696Z,4.80
2023-12-18T16:55:40.551Z,6.53
2023-12-18T16:58:10.576Z,6.18
2023-12-18T17:00:38.583Z,6.43
2023-12-18T17:03:06.569Z,6.60
2023-12-18T17:05:36.687Z,4.65
2023-12-18T17:08:04.665Z,4.65
2023-12-18T17:10:32.252Z,3.83
2023-12-18T17:12:59.983Z,4.00
2023-12-18T17:15:30.376Z,5.22
2023-12-18T17:17:58.492Z,4.25
2023-12-18T17:20:26.508Z,4.22
2023-12-18T17:22:54.163Z,4.35
2023-12-18T17:25:22.063Z,5.10
2023-12-18T17:27:49.817Z,4.05
2023-12-18T17:30:17.720Z,2.95
2023-12-18T17:32:45.811Z,5.03
2023-12-18T17:35:15.612Z,4.15
2023-12-18T17:37:43.254Z,4.78
2023-12-18T17:40:11.868Z,4.72
2023-12-18T17:42:39.815Z,5.57
2023-12-18T17:45:08.198Z,5.25
2023-12-18T17:47:36.145Z,7.40
2023-12-18T17:50:04.084Z,8.20
2023-12-18T17:52:31.868Z,7.55
2023-12-18T17:54:59.530Z,6.35
2023-12-18T17:57:30.307Z,5.80
2023-12-18T17:59:58.417Z,6.32
2023-12-18T18:02:29.165Z,6.85
2023-12-18T18:04:56.751Z,7.75
2023-12-18T18:07:24.355Z,9.15
2023-12-18T18:09:52.129Z,7.63
2023-12-18T18:12:19.805Z,7.00
2023-12-18T18:14:47.744Z,7.28
2023-12-18T18:17:15.768Z,7.15
2023-12-18T18:22:11.996Z,7.63
2023-12-18T18:24:39.732Z,7.80
2023-12-18T18:27:10.307Z,7.78
2023-12-18T18:29:39.145Z,8.52
2023-12-18T18:32:07.309Z,8.50
2023-12-18T18:34:38.097Z,7.70
2023-12-18T18:37:05.913Z,7.88
2023-12-18T18:39:33.565Z,9.40
2023-12-18T18:42:01.581Z,8.32
2023-12-18T18:44:29.231Z,9.20
2023-12-18T18:46:58.276Z,6.70
2023-12-18T18:49:25.958Z,8.65
2023-12-18T18:51:53.730Z,9.98
2023-12-18T18:54:21.638Z,9.30
2023-12-18T18:56:49.388Z,10.70
2023-12-18T18:59:17.020Z,10.20
2023-12-18T19:01:44.720Z,10.48
2023-12-18T19:04:13.627Z,11.02
2023-12-18T19:06:41.470Z,10.27
2023-12-18T19:09:09.175Z,9.40
2023-12-18T19:11:36.846Z,11.23
2023-12-18T19:14:04.468Z,11.18
2023-12-18T19:16:32.065Z,11.45
2023-12-18T19:19:00.675Z,9.68
2023-12-18T19:21:30.303Z,10.23
2023-12-18T19:23:57.940Z,10.38
2023-12-18T19:26:25.573Z,9.82
2023-12-18T19:28:54.051Z,9.65
2023-12-18T19:31:21.876Z,9.40
2023-12-18T19:33:49.666Z,9.30
2023-12-18T19:36:17.424Z,9.20
2023-12-18T19:38:47.437Z,9.63
2023-12-18T19:41:20.972Z,9.05
2023-12-18T19:43:48.626Z,10.38
2023-12-18T19:46:16.237Z,9.80
2023-12-18T19:48:44.325Z,9.80
2023-12-18T19:53:39.570Z,8.90
2023-12-18T19:56:07.330Z,9.48
2023-12-18T19:58:34.933Z,9.32
2023-12-18T20:01:02.734Z,9.27
2023-12-18T20:03:30.484Z,9.32
2023-12-18T20:05:58.145Z,9.52
2023-12-18T20:08:25.804Z,9.73
2023-12-18T20:10:55.208Z,10.02
2023-12-18T20:13:22.894Z,10.45
2023-12-18T20:15:50.555Z,9.32
2023-12-18T20:18:21.562Z,10.45
2023-12-18T20:20:49.395Z,10.55
2023-12-18T20:23:17.583Z,11.60
2023-12-18T20:25:45.225Z,10.90
2023-12-18T20:28:12.832Z,11.65
2023-12-18T20:30:40.483Z,12.45
2023-12-18T20:33:08.173Z,12.45
2023-12-18T20:35:35.850Z,14.43
2023-12-18T20:38:03.486Z,12.75
2023-12-18T20:40:31.160Z,12.50
2023-12-18T20:42:58.831Z,11.52
2023-12-18T20:45:26.564Z,13.45
2023-12-18T20:47:55.177Z,11.98
2023-12-18T20:50:22.885Z,11.80
2023-12-18T20:52:50.484Z,8.10
2023-12-18T20:55:18.104Z,11.25
2023-12-18T20:57:45.739Z,11.10
2023-12-18T21:00:23.559Z,11.02
2023-12-18T21:02:53.451Z,11.13
2023-12-18T21:07:49.328Z,10.77
2023-12-18T21:10:17.009Z,11.38
2023-12-18T21:12:44.994Z,11.35
2023-12-18T21:15:12.781Z,11.13
2023-12-18T21:17:40.519Z,11.45
2023-12-18T21:20:08.584Z,11.43
2023-12-18T21:22:37.513Z,10.30
2023-12-18T21:25:06.093Z,10.98
2023-12-18T21:27:33.844Z,11.00
2023-12-18T21:30:01.460Z,11.43
2023-12-18T21:32:29.262Z,9.05
2023-12-18T21:34:56.910Z,11.02
2023-12-18T21:37:24.564Z,10.63
2023-12-18T21:39:52.954Z,10.63
2023-12-18T21:42:21.326Z,11.35
2023-12-18T21:44:49.053Z,11.02
2023-12-18T21:47:16.669Z,10.50
2023-12-18T21:49:45.540Z,11.00
2023-12-18T21:52:13.646Z,10.73
2023-12-18T21:54:41.305Z,10.55
2023-12-18T21:57:11.197Z,7.85
2023-12-18T21:59:38.865Z,10.93
2023-12-18T22:02:08.754Z,9.70
2023-12-18T22:04:37.615Z,10.07
2023-12-18T22:07:08.341Z,10.32
2023-12-18T22:09:36.035Z,9.68
2023-12-18T22:12:03.662Z,9.25
2023-12-18T22:14:31.256Z,9.52
2023-12-18T22:16:58.844Z,8.25
2023-12-18T22:19:26.549Z,8.70
2023-12-18T22:21:54.277Z,8.23
2023-12-18T22:24:22.086Z,7.80
2023-12-18T22:26:49.697Z,9.68
2023-12-18T22:29:17.310Z,8.98
2023-12-18T22:31:45.006Z,8.00
2023-12-18T22:34:12.900Z,8.20
2023-12-18T22:36:40.614Z,8.30
2023-12-18T22:39:11.709Z,7.65
2023-12-18T22:41:41.692Z,6.88
2023-12-18T22:44:09.608Z,6.78
2023-12-18T22:46:38.471Z,6.47
2023-12-18T22:49:06.274Z,6.57
2023-12-18T22:51:33.974Z,6.65
2023-12-18T22:54:01.598Z,6.25
2023-12-18T22:56:29.556Z,5.13
2023-12-18T22:58:57.234Z,6.80
2023-12-18T23:01:25.071Z,6.78
2023-12-18T23:03:52.863Z,6.93
2023-12-18T23:06:20.578Z,5.72
2023-12-18T23:08:52.286Z,5.82
2023-12-18T23:11:23.522Z,6.90
2023-12-18T23:13:54.426Z,6.55
2023-12-18T23:16:22.055Z,6.97
2023-12-18T23:18:49.824Z,7.03
2023-12-18T23:21:17.572Z,6.10
2023-12-18T23:23:45.194Z,6.25
2023-12-18T23:26:12.816Z,6.50
2023-12-18T23:28:40.420Z,6.35
2023-12-18T23:31:08.049Z,6.68
2023-12-18T23:33:36.052Z,6.72
2023-12-18T23:36:03.869Z,5.75
2023-12-18T23:38:31.493Z,6.25
2023-12-18T23:40:59.132Z,6.28
2023-12-18T23:43:26.800Z,6.28
2023-12-18T23:45:54.527Z,6.93
2023-12-18T23:48:22.284Z,6.57
2023-12-18T23:50:49.941Z,5.88
2023-12-18T23:53:18.852Z,6.38
2023-12-18T23:55:46.479Z,5.97
2023-12-18T23:58:17.435Z,4.47
